Time;durP1;ratioP1;P1;durP2;ratioP2;P2;SDS_P1;SDS_P2;PMS_P1;PMS_P2;Temp;Humidity;BMP_temperature;BMP_pressure;BME280_temperature;BME280_humidity;BME280_pressure;Samples;Min_cycle;Max_cycle;Signal;HPM_P1;HPM_P2
2023/03/25 00:00:48;;;;;;;2.67;1.33;;;;;;;;;;4937425;29;20965;-63
2023/03/25 00:03:14;;;;;;;3.53;1.50;;;;;;;;;;4937727;29;20416;-63
2023/03/25 00:05:42;;;;;;;2.50;1.83;;;;;;;;;;4936189;29;20877;-63
2023/03/25 00:08:08;;;;;;;2.93;1.60;;;;;;;;;;4937551;29;20519;-62
2023/03/25 00:10:34;;;;;;;2.03;1.87;;;;;;;;;;4937445;29;20702;-62
2023/03/25 00:13:04;;;;;;;3.53;2.17;;;;;;;;;;4937317;29;20475;-62
2023/03/25 00:15:32;;;;;;;4.00;1.90;;;;;;;;;;4937882;29;20478;-62
2023/03/25 00:17:59;;;;;;;2.67;1.50;;;;;;;;;;4937477;29;20522;-62
2023/03/25 00:20:27;;;;;;;4.20;1.70;;;;;;;;;;4937126;29;20940;-62
2023/03/25 00:22:53;;;;;;;4.23;1.50;;;;;;;;;;4936898;29;20419;-62
2023/03/25 00:25:20;;;;;;;7.10;2.00;;;;;;;;;;4936075;29;20983;-62
2023/03/25 00:27:47;;;;;;;2.10;1.50;;;;;;;;;;4937215;29;20419;-62
2023/03/25 00:30:14;;;;;;;5.60;1.97;;;;;;;;;;4937260;29;20420;-63
2023/03/25 00:32:40;;;;;;;1.60;1.50;;;;;;;;;;4937436;29;20420;-62
2023/03/25 00:35:08;;;;;;;2.40;1.43;;;;;;;;;;4937241;29;20812;-62
2023/03/25 00:37:35;;;;;;;4.20;1.70;;;;;;;;;;4936713;29;20531;-62
2023/03/25 00:40:01;;;;;;;2.63;1.43;;;;;;;;;;4937094;29;20443;-62
2023/03/25 00:42:26;;;;;;;4.57;1.70;;;;;;;;;;4936861;29;20548;-62
2023/03/25 00:44:53;;;;;;;5.03;1.87;;;;;;;;;;4936948;29;20942;-63
2023/03/25 00:47:20;;;;;;;3.23;1.40;;;;;;;;;;4936881;29;20413;-62
2023/03/25 00:49:46;;;;;;;4.73;1.40;;;;;;;;;;4936992;29;20412;-62
2023/03/25 00:52:14;;;;;;;3.83;1.73;;;;;;;;;;4936119;29;20436;-62
2023/03/25 00:54:40;;;;;;;3.60;1.50;;;;;;;;;;4936938;29;20416;-62
2023/03/25 00:57:06;;;;;;;1.90;1.30;;;;;;;;;;4936964;29;20811;-62
2023/03/25 00:59:32;;;;;;;5.13;1.20;;;;;;;;;;4936903;29;20491;-62
2023/03/25 01:01:58;;;;;;;2.57;0.90;;;;;;;;;;4936462;29;20634;-62
2023/03/25 01:04:24;;;;;;;1.30;1.20;;;;;;;;;;4936701;29;20409;-62
2023/03/25 01:06:50;;;;;;;1.40;1.20;;;;;;;;;;4936908;29;20423;-62
2023/03/25 01:09:18;;;;;;;1.30;1.13;;;;;;;;;;4936281;29;20478;-68
2023/03/25 01:11:45;;;;;;;5.67;1.63;;;;;;;;;;4935930;29;20899;-67
2023/03/25 01:14:13;;;;;;;4.23;1.80;;;;;;;;;;4936415;29;20825;-67
2023/03/25 01:16:39;;;;;;;2.30;1.80;;;;;;;;;;4936749;29;20416;-67
2023/03/25 01:19:07;;;;;;;2.00;1.70;;;;;;;;;;4936527;29;20455;-68
2023/03/25 01:21:35;;;;;;;4.50;1.50;;;;;;;;;;4935888;29;20472;-68
2023/03/25 01:24:01;;;;;;;2.30;1.33;;;;;;;;;;4936408;29;20479;-67
2023/03/25 01:26:27;;;;;;;5.83;1.50;;;;;;;;;;4936122;29;20416;-67
2023/03/25 01:28:53;;;;;;;4.77;1.60;;;;;;;;;;4936247;29;20417;-66
2023/03/25 01:31:21;;;;;;;18.43;2.50;;;;;;;;;;4936108;29;20448;-66
2023/03/25 01:33:47;;;;;;;2.80;1.47;;;;;;;;;;4936510;29;20826;-67
2023/03/25 01:36:13;;;;;;;8.80;1.83;;;;;;;;;;4934939;29;20565;-67
2023/03/25 01:38:40;;;;;;;5.70;1.73;;;;;;;;;;4936089;29;20508;-67
2023/03/25 01:41:06;;;;;;;3.50;1.80;;;;;;;;;;4935919;29;20484;-67
2023/03/25 01:43:33;;;;;;;5.03;2.00;;;;;;;;;;4936040;29;20515;-67
2023/03/25 01:45:59;;;;;;;3.77;1.40;;;;;;;;;;4936126;29;20419;-67
2023/03/25 01:48:31;;;;;;;4.90;1.93;;;;;;;;;;4935874;29;20417;-68
2023/03/25 01:51:01;;;;;;;9.07;1.80;;;;;;;;;;4934862;29;20428;-68
2023/03/25 01:53:29;;;;;;;5.03;1.83;;;;;;;;;;4935855;29;20806;-68
2023/03/25 01:55:55;;;;;;;3.90;1.40;;;;;;;;;;4936274;29;20511;-68
2023/03/25 01:58:23;;;;;;;6.33;1.90;;;;;;;;;;4935861;29;20436;-68
2023/03/25 02:00:50;;;;;;;4.97;1.80;;;;;;;;;;4935550;29;20491;-67
2023/03/25 02:03:19;;;;;;;4.87;2.10;;;;;;;;;;4935990;29;20448;-67
2023/03/25 02:05:59;;;;;;;3.67;1.80;;;;;;;;;;4935799;29;20416;-68
2023/03/25 02:08:27;;;;;;;4.20;1.83;;;;;;;;;;4934371;29;20975;-66
2023/03/25 02:10:54;;;;;;;5.00;2.10;;;;;;;;;;4935652;29;20503;-68
2023/03/25 02:13:20;;;;;;;3.17;1.67;;;;;;;;;;4935586;29;20884;-68
2023/03/25 02:16:16;;;;;;;4.53;2.33;;;;;;;;;;4934246;29;20484;-68
2023/03/25 02:18:55;;;;;;;7.50;2.00;;;;;;;;;;4936227;28;20456;-67
2023/03/25 02:21:44;;;;;;;4.03;1.60;;;;;;;;;;4935271;29;20474;-68
2023/03/25 02:24:13;;;;;;;11.60;2.07;;;;;;;;;;4935395;29;20519;-67
2023/03/25 02:26:55;;;;;;;5.90;2.17;;;;;;;;;;4933775;29;20507;-67
2023/03/25 02:29:24;;;;;;;3.20;1.70;;;;;;;;;;4934039;29;20435;-67
2023/03/25 02:31:50;;;;;;;7.63;1.90;;;;;;;;;;4934884;29;20416;-67
2023/03/25 02:34:28;;;;;;;9.87;1.87;;;;;;;;;;4935097;29;20954;-67
2023/03/25 02:37:08;;;;;;;10.13;2.20;;;;;;;;;;4933614;29;20446;-67
2023/03/25 02:39:36;;;;;;;2.77;1.13;;;;;;;;;;4935262;29;20412;-67
2023/03/25 02:42:15;;;;;;;3.30;1.37;;;;;;;;;;4935054;29;20550;-67
2023/03/25 02:45:02;;;;;;;11.07;1.30;;;;;;;;;;4934871;29;20420;-66
2023/03/25 02:47:31;;;;;;;3.17;0.90;;;;;;;;;;4936555;29;20431;-67
2023/03/25 02:50:08;;;;;;;1.20;1.10;;;;;;;;;;4935180;29;20718;-67
2023/03/25 02:52:40;;;;;;;1.00;0.90;;;;;;;;;;4934896;29;20848;-67
2023/03/25 02:55:09;;;;;;;1.60;1.00;;;;;;;;;;4935085;29;20412;-67
2023/03/25 02:57:38;;;;;;;0.90;0.57;;;;;;;;;;4935068;29;20422;-67
2023/03/25 03:00:14;;;;;;;0.60;0.60;;;;;;;;;;4935373;29;20451;-67
2023/03/25 03:03:00;;;;;;;2.43;0.80;;;;;;;;;;4934064;29;20526;-67
2023/03/25 03:05:36;;;;;;;0.60;0.60;;;;;;;;;;4934523;29;20507;-68
2023/03/25 03:08:21;;;;;;;0.70;0.70;;;;;;;;;;4934600;29;20511;-67
2023/03/25 03:11:02;;;;;;;1.63;1.13;;;;;;;;;;4934702;29;20440;-66
2023/03/25 03:13:49;;;;;;;1.57;0.80;;;;;;;;;;4934846;29;20444;-66
2023/03/25 03:16:30;;;;;;;2.50;0.80;;;;;;;;;;4934670;29;20479;-69
2023/03/25 03:19:15;;;;;;;4.37;0.90;;;;;;;;;;4934987;29;20412;-67
2023/03/25 03:22:13;;;;;;;1.43;0.90;;;;;;;;;;4935029;29;20850;-66
2023/03/25 03:25:02;;;;;;;0.73;0.73;;;;;;;;;;4934819;29;20432;-66
2023/03/25 03:27:32;;;;;;;2.20;1.33;;;;;;;;;;4934732;29;20523;-66
2023/03/25 03:30:21;;;;;;;0.97;0.90;;;;;;;;;;4934722;29;20423;-66
2023/03/25 03:32:59;;;;;;;1.83;0.80;;;;;;;;;;4936434;29;20507;-66
2023/03/25 03:35:48;;;;;;;2.50;1.00;;;;;;;;;;4937968;29;20468;-66
2023/03/25 03:38:16;;;;;;;4.73;0.97;;;;;;;;;;4938040;29;21011;-67
2023/03/25 03:40:44;;;;;;;1.57;0.77;;;;;;;;;;4938308;29;20880;-66
2023/03/25 03:43:15;;;;;;;0.97;0.70;;;;;;;;;;4938486;29;20822;-66
2023/03/25 03:45:43;;;;;;;3.33;0.77;;;;;;;;;;4936870;29;20523;-67
2023/03/25 03:48:16;;;;;;;0.93;0.80;;;;;;;;;;4938109;29;20412;-67
2023/03/25 03:50:47;;;;;;;0.57;0.57;;;;;;;;;;4937807;29;20411;-66
2023/03/25 03:53:20;;;;;;;2.63;0.83;;;;;;;;;;4938081;29;20411;-67
2023/03/25 03:55:50;;;;;;;0.73;0.63;;;;;;;;;;4938130;29;20476;-67
2023/03/25 03:58:27;;;;;;;3.93;1.10;;;;;;;;;;4937831;29;20532;-67
2023/03/25 04:01:04;;;;;;;1.23;0.80;;;;;;;;;;4938042;29;20833;-66
2023/03/25 04:03:37;;;;;;;1.53;0.50;;;;;;;;;;4937749;29;20483;-66
2023/03/25 04:06:08;;;;;;;4.93;0.67;;;;;;;;;;4937537;29;20579;-68
2023/03/25 04:08:41;;;;;;;3.07;0.97;;;;;;;;;;4937692;29;20478;-67
2023/03/25 04:11:10;;;;;;;0.70;0.60;;;;;;;;;;4937707;29;20416;-68
2023/03/25 04:13:38;;;;;;;1.33;0.70;;;;;;;;;;4937815;29;20422;-67
2023/03/25 04:16:07;;;;;;;0.80;0.60;;;;;;;;;;4937621;29;20824;-69
2023/03/25 04:18:34;;;;;;;0.70;0.50;;;;;;;;;;4936049;29;20416;-68
2023/03/25 04:21:00;;;;;;;0.60;0.60;;;;;;;;;;4936147;29;20491;-66
2023/03/25 04:23:28;;;;;;;4.00;0.80;;;;;;;;;;4937653;29;20791;-67
2023/03/25 04:26:01;;;;;;;1.00;0.60;;;;;;;;;;4937548;29;20762;-67
2023/03/25 04:28:30;;;;;;;0.67;0.60;;;;;;;;;;4937486;29;20478;-67
2023/03/25 04:30:59;;;;;;;0.60;0.60;;;;;;;;;;4937356;29;20471;-67
2023/03/25 04:33:25;;;;;;;0.73;0.50;;;;;;;;;;4935878;29;20935;-67
2023/03/25 04:35:52;;;;;;;0.73;0.50;;;;;;;;;;4937171;29;20443;-67
2023/03/25 04:38:18;;;;;;;0.73;0.50;;;;;;;;;;4937155;29;20568;-66
2023/03/25 04:40:48;;;;;;;1.00;0.70;;;;;;;;;;4935610;29;20503;-66
2023/03/25 04:43:14;;;;;;;0.67;0.67;;;;;;;;;;4937542;29;20779;-67
2023/03/25 04:45:48;;;;;;;0.80;0.47;;;;;;;;;;4936943;29;20855;-67
2023/03/25 04:48:28;;;;;;;0.67;0.63;;;;;;;;;;4936976;29;20428;-67
2023/03/25 04:50:56;;;;;;;0.70;0.63;;;;;;;;;;4937102;29;20502;-67
2023/03/25 04:53:22;;;;;;;2.83;0.70;;;;;;;;;;4937050;29;20432;-67
2023/03/25 04:55:49;;;;;;;0.60;0.60;;;;;;;;;;4936885;29;20955;-67
2023/03/25 04:58:17;;;;;;;2.20;0.57;;;;;;;;;;4936907;29;20773;-67
2023/03/25 05:00:44;;;;;;;1.93;0.70;;;;;;;;;;4936740;29;20416;-65
2023/03/25 05:03:14;;;;;;;0.40;0.40;;;;;;;;;;4935497;29;20447;-66
2023/03/25 05:05:40;;;;;;;1.53;0.63;;;;;;;;;;4936657;29;20416;-65
2023/03/25 05:08:06;;;;;;;0.47;0.47;;;;;;;;;;4936551;29;20816;-66
2023/03/25 05:10:34;;;;;;;1.63;0.50;;;;;;;;;;4936599;29;20412;-66
2023/03/25 05:13:01;;;;;;;0.70;0.57;;;;;;;;;;4936554;29;20440;-66
2023/03/25 05:15:29;;;;;;;0.40;0.40;;;;;;;;;;4936479;29;20447;-66
2023/03/25 05:17:55;;;;;;;1.47;0.50;;;;;;;;;;4936417;29;20416;-66
2023/03/25 05:20:21;;;;;;;0.50;0.50;;;;;;;;;;4936295;29;20435;-65
2023/03/25 05:22:47;;;;;;;0.40;0.40;;;;;;;;;;4936057;29;20959;-66
2023/03/25 05:25:13;;;;;;;0.60;0.60;;;;;;;;;;4936366;29;20412;-66
2023/03/25 05:27:41;;;;;;;0.40;0.40;;;;;;;;;;4936128;29;20424;-66
2023/03/25 05:30:07;;;;;;;0.77;0.50;;;;;;;;;;4936192;29;20841;-66
2023/03/25 05:32:33;;;;;;;0.50;0.50;;;;;;;;;;4936138;29;20971;-66
2023/03/25 05:35:00;;;;;;;2.73;0.47;;;;;;;;;;4935950;29;20479;-66
2023/03/25 05:37:28;;;;;;;1.27;0.77;;;;;;;;;;4935571;29;20436;-65
2023/03/25 05:39:55;;;;;;;0.50;0.50;;;;;;;;;;4936219;29;20483;-66
2023/03/25 05:42:24;;;;;;;1.90;1.80;;;;;;;;;;4935626;29;20472;-66
2023/03/25 05:44:51;;;;;;;1.60;0.60;;;;;;;;;;4936087;29;20428;-66
2023/03/25 05:47:19;;;;;;;0.93;0.70;;;;;;;;;;4935929;29;20523;-65
2023/03/25 05:49:45;;;;;;;0.70;0.70;;;;;;;;;;4935986;29;20913;-65
2023/03/25 05:52:11;;;;;;;0.50;0.50;;;;;;;;;;4935586;29;20479;-65
2023/03/25 05:54:40;;;;;;;1.27;0.50;;;;;;;;;;4935679;29;20421;-66
2023/03/25 05:57:07;;;;;;;0.60;0.60;;;;;;;;;;4935845;29;20470;-66
2023/03/25 05:59:33;;;;;;;0.87;0.63;;;;;;;;;;4935558;29;20836;-66
2023/03/25 06:01:59;;;;;;;1.20;0.50;;;;;;;;;;4935660;29;20479;-65
2023/03/25 06:04:25;;;;;;;1.43;0.50;;;;;;;;;;4935503;29;20448;-65
2023/03/25 06:06:52;;;;;;;1.97;1.87;;;;;;;;;;4935267;29;20412;-65
2023/03/25 06:09:18;;;;;;;1.47;0.77;;;;;;;;;;4935626;29;20491;-66
2023/03/25 06:11:52;;;;;;;2.20;0.90;;;;;;;;;;4935344;29;20904;-66
2023/03/25 06:14:19;;;;;;;2.00;0.80;;;;;;;;;;4935539;29;20472;-66
2023/03/25 06:16:45;;;;;;;2.10;1.20;;;;;;;;;;4935419;29;20416;-65
2023/03/25 06:19:11;;;;;;;0.97;0.70;;;;;;;;;;4935355;29;20821;-66
2023/03/25 06:21:37;;;;;;;1.73;0.80;;;;;;;;;;4935442;29;20468;-66
2023/03/25 06:24:03;;;;;;;0.80;0.70;;;;;;;;;;4934210;29;20443;-66
2023/03/25 06:26:31;;;;;;;2.20;1.00;;;;;;;;;;4935052;29;20408;-66
2023/03/25 06:28:57;;;;;;;1.23;0.80;;;;;;;;;;4935148;29;20411;-65
2023/03/25 06:31:32;;;;;;;2.57;1.10;;;;;;;;;;4935063;29;20444;-65
2023/03/25 06:33:57;;;;;;;1.17;0.70;;;;;;;;;;4935438;29;20420;-66
2023/03/25 06:36:24;;;;;;;3.17;0.90;;;;;;;;;;4934901;29;20807;-65
2023/03/25 06:38:50;;;;;;;4.63;0.80;;;;;;;;;;4935053;29;20420;-66
2023/03/25 06:41:20;;;;;;;1.57;1.00;;;;;;;;;;4934812;29;20463;-66
2023/03/25 06:43:46;;;;;;;2.53;1.10;;;;;;;;;;4935028;29;20420;-66
2023/03/25 06:46:12;;;;;;;1.17;0.90;;;;;;;;;;4935044;29;20464;-66
2023/03/25 06:48:38;;;;;;;4.40;1.13;;;;;;;;;;4934519;29;20442;-65
2023/03/25 06:51:05;;;;;;;1.87;1.67;;;;;;;;;;4935136;29;20511;-66
2023/03/25 06:53:31;;;;;;;0.97;0.90;;;;;;;;;;4934784;29;20492;-66
2023/03/25 06:55:57;;;;;;;2.67;1.20;;;;;;;;;;4935065;29;20412;-66
2023/03/25 06:58:23;;;;;;;1.93;0.80;;;;;;;;;;4934817;29;20466;-66
2023/03/25 07:00:55;;;;;;;7.07;1.30;;;;;;;;;;4934401;29;20423;-66
2023/03/25 07:03:23;;;;;;;3.93;0.97;;;;;;;;;;4935007;29;20499;-66
2023/03/25 07:05:49;;;;;;;4.30;1.20;;;;;;;;;;4934938;29;20424;-66
2023/03/25 07:08:15;;;;;;;1.63;0.90;;;;;;;;;;4934805;29;20474;-65
2023/03/25 07:10:41;;;;;;;5.30;1.10;;;;;;;;;;4938519;29;20943;-66
2023/03/25 07:13:11;;;;;;;3.83;1.40;;;;;;;;;;4938510;29;20412;-65
2023/03/25 07:15:37;;;;;;;2.27;0.83;;;;;;;;;;4938713;29;20777;-67
2023/03/25 07:18:04;;;;;;;1.67;1.10;;;;;;;;;;4938665;29;20412;-65
2023/03/25 07:20:30;;;;;;;2.30;2.13;;;;;;;;;;4938488;29;20415;-65
2023/03/25 07:22:56;;;;;;;2.10;1.40;;;;;;;;;;4938482;29;20514;-66
2023/03/25 07:25:22;;;;;;;4.80;0.70;;;;;;;;;;4938980;29;20495;-66
2023/03/25 07:27:50;;;;;;;1.37;0.83;;;;;;;;;;4938328;29;20451;-66
2023/03/25 07:30:17;;;;;;;2.23;1.03;;;;;;;;;;4938602;29;20439;-67
2023/03/25 07:32:44;;;;;;;2.50;1.40;;;;;;;;;;4938312;29;20526;-66
2023/03/25 07:35:10;;;;;;;8.20;1.80;;;;;;;;;;4938482;29;20566;-66
2023/03/25 07:37:36;;;;;;;7.60;1.53;;;;;;;;;;4937198;29;20558;-66
2023/03/25 07:40:03;;;;;;;8.07;1.50;;;;;;;;;;4937892;29;20583;-67
2023/03/25 07:42:29;;;;;;;2.47;1.03;;;;;;;;;;4938568;29;20511;-66
2023/03/25 07:44:55;;;;;;;2.90;1.67;;;;;;;;;;4938616;29;20879;-66
2023/03/25 07:47:21;;;;;;;4.83;1.57;;;;;;;;;;4938327;29;20416;-66
2023/03/25 07:49:48;;;;;;;3.83;1.30;;;;;;;;;;4938376;29;20409;-67
2023/03/25 07:52:15;;;;;;;2.87;1.73;;;;;;;;;;4938282;29;20411;-68
2023/03/25 07:54:41;;;;;;;3.23;1.70;;;;;;;;;;4938403;29;20479;-68
2023/03/25 07:57:06;;;;;;;10.47;2.17;;;;;;;;;;4938126;29;20421;-67
2023/03/25 07:59:32;;;;;;;10.20;2.17;;;;;;;;;;4937172;29;20423;-68
2023/03/25 08:01:58;;;;;;;4.67;1.53;;;;;;;;;;4936870;29;20488;-68
2023/03/25 08:04:24;;;;;;;10.63;2.17;;;;;;;;;;4938053;29;20467;-67
2023/03/25 08:06:50;;;;;;;10.17;2.80;;;;;;;;;;4937800;29;20412;-68
2023/03/25 08:09:16;;;;;;;5.23;2.07;;;;;;;;;;4937902;29;20427;-67
2023/03/25 08:11:42;;;;;;;7.80;1.90;;;;;;;;;;4937800;29;20428;-67
2023/03/25 08:14:08;;;;;;;6.40;1.53;;;;;;;;;;4937982;29;20833;-66
2023/03/25 08:16:34;;;;;;;1.93;1.57;;;;;;;;;;4938429;29;20420;-67
2023/03/25 08:19:00;;;;;;;1.43;1.00;;;;;;;;;;4937684;29;20810;-67
2023/03/25 08:21:26;;;;;;;5.20;1.23;;;;;;;;;;4937728;29;20464;-67
2023/03/25 08:24:03;;;;;;;1.60;1.33;;;;;;;;;;4936607;29;20951;-67
2023/03/25 08:26:29;;;;;;;6.70;1.27;;;;;;;;;;4938036;29;20409;-67
2023/03/25 08:28:56;;;;;;;2.50;1.13;;;;;;;;;;4937805;29;20444;-67
2023/03/25 08:31:23;;;;;;;1.47;1.37;;;;;;;;;;4937736;29;20450;-67
2023/03/25 08:33:49;;;;;;;3.10;1.47;;;;;;;;;;4937800;29;20945;-67
2023/03/25 08:36:18;;;;;;;1.50;1.07;;;;;;;;;;4937573;29;20708;-67
2023/03/25 08:38:45;;;;;;;1.37;0.80;;;;;;;;;;4937744;29;20444;-67
2023/03/25 08:41:11;;;;;;;1.53;1.07;;;;;;;;;;4936284;29;20467;-67
2023/03/25 08:43:36;;;;;;;2.77;0.70;;;;;;;;;;4937614;29;20488;-67
2023/03/25 08:46:03;;;;;;;1.27;0.90;;;;;;;;;;4937569;29;20412;-67
2023/03/25 08:48:29;;;;;;;3.43;1.20;;;;;;;;;;4937469;29;20994;-67
2023/03/25 08:50:55;;;;;;;2.17;1.97;;;;;;;;;;4937504;29;20977;-67
2023/03/25 08:53:23;;;;;;;1.90;0.83;;;;;;;;;;4937235;29;20444;-67
2023/03/25 08:55:52;;;;;;;2.03;0.60;;;;;;;;;;4937395;29;20476;-67
2023/03/25 08:58:21;;;;;;;1.60;1.27;;;;;;;;;;4935921;29;21030;-67
2023/03/25 09:00:53;;;;;;;0.90;0.73;;;;;;;;;;4937139;29;20975;-67
2023/03/25 09:03:19;;;;;;;1.63;0.60;;;;;;;;;;4935815;29;20450;-67
2023/03/25 09:05:45;;;;;;;0.80;0.63;;;;;;;;;;4935853;29;20420;-68
2023/03/25 09:08:11;;;;;;;0.67;0.67;;;;;;;;;;4936618;29;20777;-67
2023/03/25 09:10:37;;;;;;;0.93;0.63;;;;;;;;;;4936834;29;20468;-65
2023/03/25 09:13:03;;;;;;;6.53;1.00;;;;;;;;;;4936956;29;20428;-64
2023/03/25 09:15:29;;;;;;;0.50;0.50;;;;;;;;;;4936341;29;20428;-65
2023/03/25 09:17:55;;;;;;;2.60;0.90;;;;;;;;;;4936708;29;20432;-64
2023/03/25 09:20:21;;;;;;;2.00;1.00;;;;;;;;;;4936454;29;20447;-65
2023/03/25 09:22:47;;;;;;;2.63;0.80;;;;;;;;;;4936200;29;20480;-62
2023/03/25 09:25:14;;;;;;;1.70;1.07;;;;;;;;;;4936461;29;20428;-65
2023/03/25 09:27:40;;;;;;;0.60;0.50;;;;;;;;;;4936189;29;20428;-64
2023/03/25 09:30:07;;;;;;;1.23;0.60;;;;;;;;;;4936658;29;20441;-65
2023/03/25 09:32:33;;;;;;;0.50;0.50;;;;;;;;;;4935610;29;20472;-64
2023/03/25 09:34:59;;;;;;;0.70;0.70;;;;;;;;;;4936079;29;20503;-65
2023/03/25 09:37:26;;;;;;;0.50;0.50;;;;;;;;;;4936300;29;20447;-65
2023/03/25 09:39:52;;;;;;;0.50;0.50;;;;;;;;;;4936535;29;20507;-65
2023/03/25 09:42:18;;;;;;;1.27;0.60;;;;;;;;;;4936392;29;20515;-65
2023/03/25 09:45:02;;;;;;;3.43;0.70;;;;;;;;;;4936330;29;20424;-65
2023/03/25 09:47:32;;;;;;;0.40;0.40;;;;;;;;;;4936219;29;20464;-65
2023/03/25 09:49:58;;;;;;;0.87;0.67;;;;;;;;;;4935928;29;20418;-65
2023/03/25 09:52:27;;;;;;;0.63;0.63;;;;;;;;;;4935782;29;20416;-65
2023/03/25 09:54:59;;;;;;;0.40;0.40;;;;;;;;;;4936125;29;20440;-65
2023/03/25 09:57:30;;;;;;;0.50;0.40;;;;;;;;;;4936109;29;20424;-65
2023/03/25 09:59:59;;;;;;;0.40;0.40;;;;;;;;;;4935784;29;20416;-64
2023/03/25 10:02:25;;;;;;;0.73;0.50;;;;;;;;;;4935769;29;20555;-65
2023/03/25 10:05:10;;;;;;;1.60;0.53;;;;;;;;;;4935564;29;20449;-65
2023/03/25 10:07:45;;;;;;;0.60;0.60;;;;;;;;;;4935966;29;20467;-65
2023/03/25 10:10:23;;;;;;;0.40;0.40;;;;;;;;;;4935821;29;20770;-65
2023/03/25 10:12:54;;;;;;;0.40;0.40;;;;;;;;;;4935816;29;20500;-65
2023/03/25 10:15:25;;;;;;;0.50;0.50;;;;;;;;;;4935602;29;20424;-65
2023/03/25 10:18:10;;;;;;;0.40;0.40;;;;;;;;;;4936029;29;20412;-65
2023/03/25 10:20:39;;;;;;;0.97;0.97;;;;;;;;;;4935739;29;20935;-65
2023/03/25 10:23:24;;;;;;;0.50;0.50;;;;;;;;;;4935724;29;20559;-65
2023/03/25 10:25:55;;;;;;;0.50;0.50;;;;;;;;;;4934184;29;20412;-65
2023/03/25 10:28:26;;;;;;;0.60;0.60;;;;;;;;;;4935865;29;20819;-65
2023/03/25 10:30:53;;;;;;;0.60;0.40;;;;;;;;;;4935665;29;20892;-65
2023/03/25 10:33:31;;;;;;;0.50;0.50;;;;;;;;;;4935757;29;20779;-65
2023/03/25 10:35:58;;;;;;;0.40;0.40;;;;;;;;;;4935590;29;20499;-65
2023/03/25 10:38:24;;;;;;;0.93;0.70;;;;;;;;;;4935599;29;20419;-65
2023/03/25 10:40:59;;;;;;;0.60;0.50;;;;;;;;;;4935012;29;20774;-65
2023/03/25 10:43:27;;;;;;;0.40;0.40;;;;;;;;;;4935501;29;20756;-63
2023/03/25 10:46:00;;;;;;;0.63;0.60;;;;;;;;;;4935479;29;20900;-63
2023/03/25 10:48:30;;;;;;;0.50;0.50;;;;;;;;;;4935655;29;20416;-64
2023/03/25 10:50:59;;;;;;;1.33;0.67;;;;;;;;;;4935202;29;20420;-64
2023/03/25 10:53:27;;;;;;;2.00;0.90;;;;;;;;;;4935437;29;20443;-64
2023/03/25 10:56:03;;;;;;;1.27;0.90;;;;;;;;;;4934832;29;20437;-64
2023/03/25 10:58:29;;;;;;;2.40;1.00;;;;;;;;;;4935144;29;20772;-63
2023/03/25 11:00:55;;;;;;;0.67;0.67;;;;;;;;;;4935058;29;20817;-63
2023/03/25 11:03:29;;;;;;;2.30;0.80;;;;;;;;;;4934848;29;20516;-63
2023/03/25 11:05:56;;;;;;;2.13;0.80;;;;;;;;;;4935124;29;20437;-64
2023/03/25 11:08:26;;;;;;;1.03;0.67;;;;;;;;;;4935124;29;20898;-63
2023/03/25 11:10:56;;;;;;;1.03;0.93;;;;;;;;;;4934625;29;20418;-63
2023/03/25 11:13:26;;;;;;;0.90;0.90;;;;;;;;;;4935215;29;20418;-63
2023/03/25 11:15:53;;;;;;;0.67;0.67;;;;;;;;;;4934973;29;20477;-63
2023/03/25 11:18:21;;;;;;;0.90;0.70;;;;;;;;;;4933719;29;20443;-63
2023/03/25 11:20:49;;;;;;;3.37;0.90;;;;;;;;;;4934795;29;20814;-63
2023/03/25 11:23:21;;;;;;;2.73;1.20;;;;;;;;;;4935058;29;20424;-63
2023/03/25 11:25:47;;;;;;;3.80;1.23;;;;;;;;;;4934843;29;20838;-64
2023/03/25 11:28:17;;;;;;;2.93;1.20;;;;;;;;;;4934981;29;20472;-63
2023/03/25 11:31:01;;;;;;;1.10;0.83;;;;;;;;;;4934930;29;20424;-63
2023/03/25 11:33:27;;;;;;;1.13;0.90;;;;;;;;;;4935064;29;20409;-63
2023/03/25 11:35:56;;;;;;;1.23;0.87;;;;;;;;;;4934197;29;20951;-63
2023/03/25 11:38:23;;;;;;;2.43;0.90;;;;;;;;;;4934958;29;20920;-63
2023/03/25 11:40:56;;;;;;;1.20;1.07;;;;;;;;;;4934467;29;20539;-63
2023/03/25 11:43:23;;;;;;;0.83;0.80;;;;;;;;;;4934929;29;20531;-64
2023/03/25 11:45:50;;;;;;;2.20;0.80;;;;;;;;;;4934587;29;20447;-63
2023/03/25 11:48:17;;;;;;;1.57;0.87;;;;;;;;;;4934676;29;20912;-64
2023/03/25 11:50:51;;;;;;;0.60;0.60;;;;;;;;;;4933181;29;20428;-64
2023/03/25 11:53:18;;;;;;;0.93;0.80;;;;;;;;;;4934960;29;20484;-64
2023/03/25 11:55:54;;;;;;;1.23;1.23;;;;;;;;;;4937002;29;20548;-64
2023/03/25 11:58:27;;;;;;;1.20;0.90;;;;;;;;;;4938194;29;20449;-64
2023/03/25 12:01:00;;;;;;;2.73;1.53;;;;;;;;;;4937934;29;20448;-63
2023/03/25 12:03:27;;;;;;;1.30;0.77;;;;;;;;;;4938416;29;20951;-63
2023/03/25 12:05:57;;;;;;;2.87;0.97;;;;;;;;;;4936486;29;20531;-64
2023/03/25 12:08:23;;;;;;;5.90;0.80;;;;;;;;;;4938065;29;20491;-63
2023/03/25 12:10:54;;;;;;;1.90;1.00;;;;;;;;;;4936756;29;20531;-64
2023/03/25 12:13:20;;;;;;;0.67;0.63;;;;;;;;;;4937775;29;20444;-64
2023/03/25 12:16:06;;;;;;;0.60;0.60;;;;;;;;;;4937707;29;20491;-64
2023/03/25 12:18:35;;;;;;;0.67;0.67;;;;;;;;;;4938025;29;20424;-64
2023/03/25 12:21:16;;;;;;;3.40;1.80;;;;;;;;;;4937838;29;20436;-63
2023/03/25 12:24:01;;;;;;;2.50;2.30;;;;;;;;;;4937879;29;20449;-63
2023/03/25 12:26:36;;;;;;;2.10;0.93;;;;;;;;;;4937431;29;20441;-63
2023/03/25 12:29:02;;;;;;;3.17;2.33;;;;;;;;;;4937777;29;20410;-63
2023/03/25 12:31:31;;;;;;;9.80;6.30;;;;;;;;;;4937875;29;20441;-64
2023/03/25 12:34:06;;;;;;;1.40;1.30;;;;;;;;;;4937695;29;20422;-64
2023/03/25 12:36:52;;;;;;;2.50;1.90;;;;;;;;;;4937556;29;20529;-63
2023/03/25 12:39:24;;;;;;;1.60;0.97;;;;;;;;;;4937493;29;20466;-64
2023/03/25 12:41:53;;;;;;;0.97;0.80;;;;;;;;;;4937570;29;20824;-63
2023/03/25 12:44:34;;;;;;;1.53;1.00;;;;;;;;;;4937373;29;20420;-63
2023/03/25 12:47:15;;;;;;;4.13;0.70;;;;;;;;;;4937096;29;20437;-63
2023/03/25 12:49:41;;;;;;;0.97;0.80;;;;;;;;;;4937189;29;20981;-63
2023/03/25 12:52:16;;;;;;;0.70;0.70;;;;;;;;;;4937125;29;20928;-63
2023/03/25 12:55:02;;;;;;;1.27;0.90;;;;;;;;;;4937452;29;20426;-64
2023/03/25 12:57:31;;;;;;;0.80;0.70;;;;;;;;;;4937444;29;20800;-64
2023/03/25 13:00:00;;;;;;;3.33;0.80;;;;;;;;;;4937283;29;20777;-64
2023/03/25 13:02:29;;;;;;;1.17;1.07;;;;;;;;;;4937175;29;20482;-64
2023/03/25 13:05:13;;;;;;;1.57;1.10;;;;;;;;;;4937253;29;20420;-64
2023/03/25 13:07:43;;;;;;;1.80;1.00;;;;;;;;;;4937195;29;20487;-64
2023/03/25 13:10:18;;;;;;;1.00;0.90;;;;;;;;;;4935683;29;20428;-64
2023/03/25 13:12:44;;;;;;;2.33;1.00;;;;;;;;;;4936748;29;20435;-64
2023/03/25 13:15:16;;;;;;;1.00;0.90;;;;;;;;;;4937162;29;20780;-64
2023/03/25 13:17:47;;;;;;;3.30;1.43;;;;;;;;;;4936950;29;20896;-64
2023/03/25 13:20:17;;;;;;;1.30;1.20;;;;;;;;;;4936881;29;20512;-64
2023/03/25 13:22:45;;;;;;;3.80;1.23;;;;;;;;;;4936726;29;20824;-64
2023/03/25 13:25:22;;;;;;;3.23;0.77;;;;;;;;;;4935336;29;20433;-64
2023/03/25 13:27:50;;;;;;;1.47;0.83;;;;;;;;;;4936323;29;20923;-64
2023/03/25 13:30:27;;;;;;;8.07;1.70;;;;;;;;;;4936627;29;20418;-63
2023/03/25 13:32:57;;;;;;;1.90;1.47;;;;;;;;;;4936422;29;20425;-63
2023/03/25 13:35:44;;;;;;;0.63;0.63;;;;;;;;;;4936356;29;20428;-63
2023/03/25 13:38:40;;;;;;;0.60;0.60;;;;;;;;;;4936356;29;20415;-64
2023/03/25 13:41:11;;;;;;;2.30;1.43;;;;;;;;;;4943658;28;20431;-63
2023/03/25 13:43:41;;;;;;;4.13;1.03;;;;;;;;;;4935174;29;20455;-64
2023/03/25 13:46:13;;;;;;;1.57;0.80;;;;;;;;;;4936138;29;20419;-64
2023/03/25 13:48:59;;;;;;;2.23;1.10;;;;;;;;;;4936238;29;20419;-64
2023/03/25 13:51:25;;;;;;;1.77;0.70;;;;;;;;;;4936030;29;20451;-64
2023/03/25 13:53:57;;;;;;;1.07;0.70;;;;;;;;;;4936343;29;20403;-64
2023/03/25 13:56:26;;;;;;;2.70;0.80;;;;;;;;;;4935628;29;20450;-63
2023/03/25 13:59:11;;;;;;;0.80;0.80;;;;;;;;;;4936302;29;20794;-64
2023/03/25 14:01:40;;;;;;;1.13;0.70;;;;;;;;;;4935763;29;20491;-64
2023/03/25 14:04:26;;;;;;;1.03;0.93;;;;;;;;;;4936224;29;20545;-64
2023/03/25 14:07:02;;;;;;;0.60;0.60;;;;;;;;;;4936046;29;20433;-63
2023/03/25 14:09:41;;;;;;;3.83;1.10;;;;;;;;;;4936020;29;20472;-64
2023/03/25 14:12:10;;;;;;;1.73;0.83;;;;;;;;;;4935822;29;20808;-64
2023/03/25 14:14:40;;;;;;;2.10;0.90;;;;;;;;;;4935722;29;20421;-63
2023/03/25 14:17:07;;;;;;;0.93;0.93;;;;;;;;;;4935420;29;20565;-64
2023/03/25 14:19:37;;;;;;;1.37;0.80;;;;;;;;;;4935647;29;20500;-64
2023/03/25 14:22:08;;;;;;;1.33;0.83;;;;;;;;;;4935503;29;20477;-64
2023/03/25 14:24:37;;;;;;;1.70;1.13;;;;;;;;;;4935690;29;20469;-64
2023/03/25 14:27:05;;;;;;;1.20;0.97;;;;;;;;;;4935495;29;20434;-64
2023/03/25 14:29:32;;;;;;;0.97;0.97;;;;;;;;;;4934412;29;20471;-64
2023/03/25 14:32:00;;;;;;;3.70;0.90;;;;;;;;;;4935552;29;20448;-64
2023/03/25 14:34:26;;;;;;;1.27;0.90;;;;;;;;;;4934276;29;20433;-64
2023/03/25 14:36:52;;;;;;;1.10;1.00;;;;;;;;;;4935196;29;20502;-65
2023/03/25 14:39:23;;;;;;;1.80;0.70;;;;;;;;;;4935471;29;20416;-65
2023/03/25 14:42:02;;;;;;;1.67;1.00;;;;;;;;;;4935461;29;20805;-64
2023/03/25 14:44:31;;;;;;;2.57;0.80;;;;;;;;;;4935516;29;20834;-65
2023/03/25 14:47:03;;;;;;;1.47;1.30;;;;;;;;;;4935335;29;21122;-65
2023/03/25 14:49:49;;;;;;;1.30;1.00;;;;;;;;;;4935460;29;20481;-65
2023/03/25 14:52:19;;;;;;;2.20;1.03;;;;;;;;;;4935176;29;20420;-65
2023/03/25 14:54:49;;;;;;;1.90;0.80;;;;;;;;;;4935635;29;20421;-65
2023/03/25 14:57:21;;;;;;;1.60;0.90;;;;;;;;;;4935108;29;20500;-65
2023/03/25 14:59:53;;;;;;;3.43;0.90;;;;;;;;;;4935445;29;20429;-65